首页
METAR-TAF:

METAR-TAF

机场 :

Chapleau, 安大略省, 加拿大

纬度: 47-49N, 经度: 083-21W, 海拔: 447米

当前天气观测

该预报发布于6小时和35分钟前的01:00 UTC
风速2节,风向多变
温度 15°C
湿度 55%
气压 1014 hPa
能見度: 24.1公里
少量云层高于8500英尺
散云层高于17000英尺
多云层高于22000英尺

METAR: CYLD 230100Z VRB02KT 15SM FEW085 SCT170 BKN220 15/06 A2995 RMK AC1AC3CI4 AC TR DNS CI PRSNT LAST STFD OBS/NEXT 23 1000UTC SLP153 DENSITY ALT 1800FT

时间: 03:35 (07:35 UTC)

预报

该预报发布于11小时和57分钟前的19:38 UTC
预报有效从22日的 20点(UTC)到 23日的 01点(UTC)
风速12节,风向北转西北
能見度: 10公里
散云层高于5000英尺

TAF: CYLD 221938Z 2220/2301 34012KT P6SM SCT050 RMK NXT FCST WILL BE ISSUED AT 231145Z

超过4000个机场的气象观测和天气预报(METAR&TAF报告)。

可查询的气象台以黄色和红色小点在地图上表示。

将鼠标移到小点上方,可查看气象台名称。

然后点击查看天气观测和预报。

如需切换地图:点击带黑十字的绿色按钮放大地图;点击带横线的绿色按钮缩小地图;或者点击绿色箭头查看邻近地区的地图。


METAR-TAF: